sensor_id;sensor_type;location;lat;lon;timestamp;P1;durP1;ratioP1;P2;durP2;ratioP2
4700;SDS011;8724;51.272;6.554;2022-07-29T00:01:29;3.10;;;1.50;;
4700;SDS011;8724;51.272;6.554;2022-07-29T00:03:58;2.60;;;1.50;;
4700;SDS011;8724;51.272;6.554;2022-07-29T00:06:26;1.83;;;1.43;;
4700;SDS011;8724;51.272;6.554;2022-07-29T00:08:54;2.20;;;1.63;;
4700;SDS011;8724;51.272;6.554;2022-07-29T00:11:23;1.80;;;1.70;;
4700;SDS011;8724;51.272;6.554;2022-07-29T00:13:52;2.47;;;2.00;;
4700;SDS011;8724;51.272;6.554;2022-07-29T00:16:21;2.50;;;1.43;;
4700;SDS011;8724;51.272;6.554;2022-07-29T00:18:49;2.23;;;1.60;;
4700;SDS011;8724;51.272;6.554;2022-07-29T00:21:17;2.10;;;1.70;;
4700;SDS011;8724;51.272;6.554;2022-07-29T00:23:46;2.00;;;1.40;;
4700;SDS011;8724;51.272;6.554;2022-07-29T00:26:14;2.83;;;1.60;;
4700;SDS011;8724;51.272;6.554;2022-07-29T00:28:42;4.77;;;1.80;;
4700;SDS011;8724;51.272;6.554;2022-07-29T00:31:12;4.00;;;2.00;;
4700;SDS011;8724;51.272;6.554;2022-07-29T00:33:40;2.53;;;1.80;;
4700;SDS011;8724;51.272;6.554;2022-07-29T00:36:08;3.43;;;1.50;;
4700;SDS011;8724;51.272;6.554;2022-07-29T00:38:36;4.10;;;1.50;;
4700;SDS011;8724;51.272;6.554;2022-07-29T00:41:04;2.27;;;1.63;;
4700;SDS011;8724;51.272;6.554;2022-07-29T00:43:32;3.03;;;1.20;;
4700;SDS011;8724;51.272;6.554;2022-07-29T00:46:00;2.40;;;1.70;;
4700;SDS011;8724;51.272;6.554;2022-07-29T00:48:30;3.87;;;1.63;;
4700;SDS011;8724;51.272;6.554;2022-07-29T00:50:59;3.20;;;1.70;;
4700;SDS011;8724;51.272;6.554;2022-07-29T00:53:31;3.17;;;1.77;;
4700;SDS011;8724;51.272;6.554;2022-07-29T00:55:59;1.47;;;1.37;;
4700;SDS011;8724;51.272;6.554;2022-07-29T00:58:27;1.80;;;1.20;;
4700;SDS011;8724;51.272;6.554;2022-07-29T01:00:56;2.70;;;1.40;;
4700;SDS011;8724;51.272;6.554;2022-07-29T01:03:25;5.57;;;1.87;;
4700;SDS011;8724;51.272;6.554;2022-07-29T01:05:55;2.40;;;1.37;;
4700;SDS011;8724;51.272;6.554;2022-07-29T01:08:24;2.33;;;1.50;;
4700;SDS011;8724;51.272;6.554;2022-07-29T01:10:52;1.57;;;1.37;;
4700;SDS011;8724;51.272;6.554;2022-07-29T01:13:21;1.70;;;1.43;;
4700;SDS011;8724;51.272;6.554;2022-07-29T01:15:51;2.40;;;1.70;;
4700;SDS011;8724;51.272;6.554;2022-07-29T01:18:27;1.97;;;1.40;;
4700;SDS011;8724;51.272;6.554;2022-07-29T01:21:15;3.20;;;1.37;;
4700;SDS011;8724;51.272;6.554;2022-07-29T01:24:04;1.20;;;1.10;;
4700;SDS011;8724;51.272;6.554;2022-07-29T01:26:48;2.43;;;1.33;;
4700;SDS011;8724;51.272;6.554;2022-07-29T01:29:23;1.83;;;1.30;;
4700;SDS011;8724;51.272;6.554;2022-07-29T01:32:05;2.43;;;1.70;;
4700;SDS011;8724;51.272;6.554;2022-07-29T01:34:54;1.10;;;1.00;;
4700;SDS011;8724;51.272;6.554;2022-07-29T01:37:28;2.73;;;1.83;;
4700;SDS011;8724;51.272;6.554;2022-07-29T01:40:00;3.47;;;1.57;;
4700;SDS011;8724;51.272;6.554;2022-07-29T01:42:32;2.30;;;2.07;;
4700;SDS011;8724;51.272;6.554;2022-07-29T01:45:10;3.57;;;1.60;;
4700;SDS011;8724;51.272;6.554;2022-07-29T01:47:43;1.80;;;1.70;;
4700;SDS011;8724;51.272;6.554;2022-07-29T01:50:17;3.00;;;1.80;;
4700;SDS011;8724;51.272;6.554;2022-07-29T01:52:49;4.33;;;2.10;;
4700;SDS011;8724;51.272;6.554;2022-07-29T01:55:24;4.87;;;2.10;;
4700;SDS011;8724;51.272;6.554;2022-07-29T01:57:56;3.10;;;1.87;;
4700;SDS011;8724;51.272;6.554;2022-07-29T02:00:28;2.63;;;2.40;;
4700;SDS011;8724;51.272;6.554;2022-07-29T02:02:58;4.60;;;2.13;;
4700;SDS011;8724;51.272;6.554;2022-07-29T02:05:28;3.93;;;2.03;;
4700;SDS011;8724;51.272;6.554;2022-07-29T02:07:59;5.00;;;1.70;;
4700;SDS011;8724;51.272;6.554;2022-07-29T02:10:30;5.10;;;2.53;;
4700;SDS011;8724;51.272;6.554;2022-07-29T02:13:00;4.07;;;1.73;;
4700;SDS011;8724;51.272;6.554;2022-07-29T02:15:32;2.23;;;1.80;;
4700;SDS011;8724;51.272;6.554;2022-07-29T02:18:02;1.53;;;1.43;;
4700;SDS011;8724;51.272;6.554;2022-07-29T02:20:34;4.93;;;1.63;;
4700;SDS011;8724;51.272;6.554;2022-07-29T02:23:03;2.20;;;1.60;;
4700;SDS011;8724;51.272;6.554;2022-07-29T02:25:33;5.33;;;1.93;;
4700;SDS011;8724;51.272;6.554;2022-07-29T02:28:04;6.57;;;1.80;;
4700;SDS011;8724;51.272;6.554;2022-07-29T02:30:36;2.47;;;1.50;;
4700;SDS011;8724;51.272;6.554;2022-07-29T02:33:08;2.90;;;1.50;;
4700;SDS011;8724;51.272;6.554;2022-07-29T02:35:40;4.03;;;1.97;;
4700;SDS011;8724;51.272;6.554;2022-07-29T02:38:12;2.13;;;1.40;;
4700;SDS011;8724;51.272;6.554;2022-07-29T02:41:00;2.50;;;1.87;;
4700;SDS011;8724;51.272;6.554;2022-07-29T02:43:30;2.50;;;1.20;;
4700;SDS011;8724;51.272;6.554;2022-07-29T02:46:01;7.00;;;1.87;;
4700;SDS011;8724;51.272;6.554;2022-07-29T02:48:55;2.30;;;1.60;;
4700;SDS011;8724;51.272;6.554;2022-07-29T02:51:27;3.33;;;1.90;;
4700;SDS011;8724;51.272;6.554;2022-07-29T02:54:11;1.97;;;1.27;;
4700;SDS011;8724;51.272;6.554;2022-07-29T02:56:50;2.00;;;1.40;;
4700;SDS011;8724;51.272;6.554;2022-07-29T02:59:22;4.80;;;1.67;;
4700;SDS011;8724;51.272;6.554;2022-07-29T03:01:56;2.17;;;1.40;;
4700;SDS011;8724;51.272;6.554;2022-07-29T03:04:28;3.20;;;1.63;;
4700;SDS011;8724;51.272;6.554;2022-07-29T03:07:00;1.87;;;1.50;;
4700;SDS011;8724;51.272;6.554;2022-07-29T03:09:29;3.27;;;1.93;;
4700;SDS011;8724;51.272;6.554;2022-07-29T03:11:59;2.20;;;1.50;;
4700;SDS011;8724;51.272;6.554;2022-07-29T03:14:29;5.20;;;1.57;;
4700;SDS011;8724;51.272;6.554;2022-07-29T03:17:00;3.53;;;1.43;;
4700;SDS011;8724;51.272;6.554;2022-07-29T03:19:30;2.00;;;1.60;;
4700;SDS011;8724;51.272;6.554;2022-07-29T03:22:00;5.27;;;1.57;;
4700;SDS011;8724;51.272;6.554;2022-07-29T03:24:29;21.37;;;3.47;;
4700;SDS011;8724;51.272;6.554;2022-07-29T03:26:59;10.63;;;1.90;;
4700;SDS011;8724;51.272;6.554;2022-07-29T03:29:29;4.47;;;1.90;;
4700;SDS011;8724;51.272;6.554;2022-07-29T03:32:01;3.87;;;1.50;;
4700;SDS011;8724;51.272;6.554;2022-07-29T03:34:34;3.70;;;1.80;;
4700;SDS011;8724;51.272;6.554;2022-07-29T03:37:07;11.53;;;1.60;;
4700;SDS011;8724;51.272;6.554;2022-07-29T03:39:37;3.70;;;2.13;;
4700;SDS011;8724;51.272;6.554;2022-07-29T03:42:13;2.60;;;1.37;;
4700;SDS011;8724;51.272;6.554;2022-07-29T03:44:44;6.10;;;1.80;;
4700;SDS011;8724;51.272;6.554;2022-07-29T03:47:17;3.47;;;2.00;;
4700;SDS011;8724;51.272;6.554;2022-07-29T03:50:10;4.97;;;2.10;;
4700;SDS011;8724;51.272;6.554;2022-07-29T03:52:40;5.43;;;1.77;;
4700;SDS011;8724;51.272;6.554;2022-07-29T03:55:11;5.80;;;3.30;;
4700;SDS011;8724;51.272;6.554;2022-07-29T03:57:40;19.97;;;15.13;;
4700;SDS011;8724;51.272;6.554;2022-07-29T04:00:10;12.10;;;6.30;;
4700;SDS011;8724;51.272;6.554;2022-07-29T04:02:41;8.60;;;4.67;;
4700;SDS011;8724;51.272;6.554;2022-07-29T04:05:15;3.13;;;2.43;;
4700;SDS011;8724;51.272;6.554;2022-07-29T04:07:48;2.63;;;2.00;;
4700;SDS011;8724;51.272;6.554;2022-07-29T04:10:18;2.17;;;1.83;;
4700;SDS011;8724;51.272;6.554;2022-07-29T04:12:58;2.70;;;1.53;;
4700;SDS011;8724;51.272;6.554;2022-07-29T04:15:27;1.77;;;1.40;;
4700;SDS011;8724;51.272;6.554;2022-07-29T04:17:58;3.53;;;2.00;;
4700;SDS011;8724;51.272;6.554;2022-07-29T04:20:28;6.17;;;2.30;;
4700;SDS011;8724;51.272;6.554;2022-07-29T04:22:56;6.40;;;2.43;;
4700;SDS011;8724;51.272;6.554;2022-07-29T04:25:25;2.23;;;1.93;;
4700;SDS011;8724;51.272;6.554;2022-07-29T04:27:54;2.17;;;1.90;;
4700;SDS011;8724;51.272;6.554;2022-07-29T04:30:29;3.20;;;1.93;;
4700;SDS011;8724;51.272;6.554;2022-07-29T04:32:59;5.40;;;2.50;;
4700;SDS011;8724;51.272;6.554;2022-07-29T04:35:28;4.60;;;2.23;;
4700;SDS011;8724;51.272;6.554;2022-07-29T04:38:04;1.97;;;1.57;;
4700;SDS011;8724;51.272;6.554;2022-07-29T04:40:42;3.23;;;2.30;;
4700;SDS011;8724;51.272;6.554;2022-07-29T04:43:15;8.00;;;5.50;;
4700;SDS011;8724;51.272;6.554;2022-07-29T04:45:48;5.80;;;3.20;;
4700;SDS011;8724;51.272;6.554;2022-07-29T04:48:18;5.17;;;3.03;;
4700;SDS011;8724;51.272;6.554;2022-07-29T04:50:54;2.83;;;2.20;;
4700;SDS011;8724;51.272;6.554;2022-07-29T04:53:23;1.63;;;1.53;;
4700;SDS011;8724;51.272;6.554;2022-07-29T04:55:52;3.87;;;2.90;;
4700;SDS011;8724;51.272;6.554;2022-07-29T04:58:20;3.20;;;2.00;;
4700;SDS011;8724;51.272;6.554;2022-07-29T05:00:56;5.30;;;2.00;;
4700;SDS011;8724;51.272;6.554;2022-07-29T05:03:26;3.53;;;2.33;;
4700;SDS011;8724;51.272;6.554;2022-07-29T05:05:55;4.10;;;1.90;;
4700;SDS011;8724;51.272;6.554;2022-07-29T05:08:23;5.77;;;2.63;;
4700;SDS011;8724;51.272;6.554;2022-07-29T05:10:54;3.67;;;1.80;;
4700;SDS011;8724;51.272;6.554;2022-07-29T05:13:36;5.50;;;2.10;;
4700;SDS011;8724;51.272;6.554;2022-07-29T05:16:12;4.87;;;1.83;;
4700;SDS011;8724;51.272;6.554;2022-07-29T05:18:42;1.93;;;1.73;;
4700;SDS011;8724;51.272;6.554;2022-07-29T05:21:13;6.47;;;2.30;;
4700;SDS011;8724;51.272;6.554;2022-07-29T05:23:41;6.30;;;1.90;;
4700;SDS011;8724;51.272;6.554;2022-07-29T05:26:10;2.37;;;2.03;;
4700;SDS011;8724;51.272;6.554;2022-07-29T05:28:39;2.77;;;1.80;;
4700;SDS011;8724;51.272;6.554;2022-07-29T05:31:07;4.23;;;2.47;;
4700;SDS011;8724;51.272;6.554;2022-07-29T05:33:36;3.43;;;1.83;;
4700;SDS011;8724;51.272;6.554;2022-07-29T05:36:06;2.27;;;1.90;;
4700;SDS011;8724;51.272;6.554;2022-07-29T05:38:35;5.23;;;1.70;;
4700;SDS011;8724;51.272;6.554;2022-07-29T05:41:04;6.27;;;1.90;;
4700;SDS011;8724;51.272;6.554;2022-07-29T05:43:33;4.40;;;2.10;;
4700;SDS011;8724;51.272;6.554;2022-07-29T05:46:01;25.57;;;18.77;;
4700;SDS011;8724;51.272;6.554;2022-07-29T05:48:30;23.30;;;19.17;;
4700;SDS011;8724;51.272;6.554;2022-07-29T05:50:59;11.60;;;8.70;;
4700;SDS011;8724;51.272;6.554;2022-07-29T05:53:29;6.47;;;4.87;;
4700;SDS011;8724;51.272;6.554;2022-07-29T05:55:58;12.90;;;4.40;;
4700;SDS011;8724;51.272;6.554;2022-07-29T05:58:32;7.27;;;2.83;;
4700;SDS011;8724;51.272;6.554;2022-07-29T06:01:00;5.53;;;2.47;;
4700;SDS011;8724;51.272;6.554;2022-07-29T06:03:29;2.23;;;2.00;;
4700;SDS011;8724;51.272;6.554;2022-07-29T06:05:58;9.07;;;2.77;;
4700;SDS011;8724;51.272;6.554;2022-07-29T06:08:27;3.07;;;2.20;;
4700;SDS011;8724;51.272;6.554;2022-07-29T06:10:56;5.20;;;2.13;;
4700;SDS011;8724;51.272;6.554;2022-07-29T06:13:25;2.93;;;2.50;;
4700;SDS011;8724;51.272;6.554;2022-07-29T06:15:54;6.00;;;3.00;;
4700;SDS011;8724;51.272;6.554;2022-07-29T06:18:23;5.10;;;2.80;;
4700;SDS011;8724;51.272;6.554;2022-07-29T06:20:51;4.60;;;2.50;;
4700;SDS011;8724;51.272;6.554;2022-07-29T06:23:21;11.03;;;3.73;;
4700;SDS011;8724;51.272;6.554;2022-07-29T06:25:49;3.23;;;2.63;;
4700;SDS011;8724;51.272;6.554;2022-07-29T06:28:19;3.83;;;2.20;;
4700;SDS011;8724;51.272;6.554;2022-07-29T06:30:48;4.57;;;2.70;;
4700;SDS011;8724;51.272;6.554;2022-07-29T06:33:17;4.00;;;2.23;;
4700;SDS011;8724;51.272;6.554;2022-07-29T06:35:46;4.73;;;2.50;;
4700;SDS011;8724;51.272;6.554;2022-07-29T06:38:20;6.63;;;3.20;;
4700;SDS011;8724;51.272;6.554;2022-07-29T06:41:00;2.60;;;2.27;;
4700;SDS011;8724;51.272;6.554;2022-07-29T06:43:32;4.67;;;2.03;;
4700;SDS011;8724;51.272;6.554;2022-07-29T06:46:20;2.20;;;2.00;;
4700;SDS011;8724;51.272;6.554;2022-07-29T06:48:49;4.47;;;2.17;;
4700;SDS011;8724;51.272;6.554;2022-07-29T06:51:19;7.27;;;2.50;;
4700;SDS011;8724;51.272;6.554;2022-07-29T06:53:49;5.70;;;2.60;;
4700;SDS011;8724;51.272;6.554;2022-07-29T06:56:28;11.20;;;2.73;;
4700;SDS011;8724;51.272;6.554;2022-07-29T06:59:05;2.67;;;2.20;;
4700;SDS011;8724;51.272;6.554;2022-07-29T07:01:34;4.80;;;2.47;;
4700;SDS011;8724;51.272;6.554;2022-07-29T07:04:03;2.60;;;2.17;;
4700;SDS011;8724;51.272;6.554;2022-07-29T07:06:32;6.20;;;3.03;;
4700;SDS011;8724;51.272;6.554;2022-07-29T07:09:00;4.60;;;2.80;;
4700;SDS011;8724;51.272;6.554;2022-07-29T07:11:29;4.50;;;2.90;;
4700;SDS011;8724;51.272;6.554;2022-07-29T07:13:57;5.70;;;2.80;;
4700;SDS011;8724;51.272;6.554;2022-07-29T07:16:30;4.30;;;3.70;;
4700;SDS011;8724;51.272;6.554;2022-07-29T07:18:59;4.80;;;2.97;;
4700;SDS011;8724;51.272;6.554;2022-07-29T07:21:27;5.00;;;3.80;;
4700;SDS011;8724;51.272;6.554;2022-07-29T07:23:57;7.53;;;3.80;;
4700;SDS011;8724;51.272;6.554;2022-07-29T07:26:26;5.20;;;4.00;;
4700;SDS011;8724;51.272;6.554;2022-07-29T07:28:55;7.03;;;3.43;;
4700;SDS011;8724;51.272;6.554;2022-07-29T07:31:24;5.37;;;3.40;;
4700;SDS011;8724;51.272;6.554;2022-07-29T07:33:54;4.27;;;2.83;;
4700;SDS011;8724;51.272;6.554;2022-07-29T07:36:22;4.27;;;2.83;;
4700;SDS011;8724;51.272;6.554;2022-07-29T07:38:51;11.10;;;2.90;;
4700;SDS011;8724;51.272;6.554;2022-07-29T07:41:20;6.70;;;3.10;;
4700;SDS011;8724;51.272;6.554;2022-07-29T07:43:49;7.93;;;3.30;;
4700;SDS011;8724;51.272;6.554;2022-07-29T07:46:17;9.00;;;3.03;;
4700;SDS011;8724;51.272;6.554;2022-07-29T07:48:46;4.20;;;2.90;;
4700;SDS011;8724;51.272;6.554;2022-07-29T07:51:15;7.83;;;3.40;;
4700;SDS011;8724;51.272;6.554;2022-07-29T07:53:44;6.00;;;2.87;;
4700;SDS011;8724;51.272;6.554;2022-07-29T07:56:16;3.57;;;2.53;;
4700;SDS011;8724;51.272;6.554;2022-07-29T07:58:44;9.43;;;3.60;;
4700;SDS011;8724;51.272;6.554;2022-07-29T08:01:12;8.40;;;3.97;;
4700;SDS011;8724;51.272;6.554;2022-07-29T08:03:41;3.47;;;2.50;;
4700;SDS011;8724;51.272;6.554;2022-07-29T08:06:09;7.43;;;3.03;;
4700;SDS011;8724;51.272;6.554;2022-07-29T08:08:39;4.07;;;2.67;;
4700;SDS011;8724;51.272;6.554;2022-07-29T08:11:08;6.63;;;3.07;;
4700;SDS011;8724;51.272;6.554;2022-07-29T08:13:36;5.17;;;2.43;;
4700;SDS011;8724;51.272;6.554;2022-07-29T08:16:06;5.27;;;3.23;;
4700;SDS011;8724;51.272;6.554;2022-07-29T08:18:42;7.30;;;2.77;;
4700;SDS011;8724;51.272;6.554;2022-07-29T08:21:12;3.63;;;2.50;;
4700;SDS011;8724;51.272;6.554;2022-07-29T08:23:43;3.30;;;2.83;;
4700;SDS011;8724;51.272;6.554;2022-07-29T08:26:26;4.47;;;2.77;;
4700;SDS011;8724;51.272;6.554;2022-07-29T08:28:54;4.70;;;2.70;;
4700;SDS011;8724;51.272;6.554;2022-07-29T08:31:23;4.03;;;2.60;;
4700;SDS011;8724;51.272;6.554;2022-07-29T08:33:51;6.47;;;3.67;;
4700;SDS011;8724;51.272;6.554;2022-07-29T08:36:19;5.60;;;2.73;;
4700;SDS011;8724;51.272;6.554;2022-07-29T08:38:49;7.37;;;2.77;;
4700;SDS011;8724;51.272;6.554;2022-07-29T08:41:18;4.50;;;3.07;;
4700;SDS011;8724;51.272;6.554;2022-07-29T08:43:47;3.63;;;2.97;;
4700;SDS011;8724;51.272;6.554;2022-07-29T08:46:15;3.10;;;2.40;;
4700;SDS011;8724;51.272;6.554;2022-07-29T08:48:44;8.40;;;2.83;;
4700;SDS011;8724;51.272;6.554;2022-07-29T08:51:14;5.13;;;3.90;;
4700;SDS011;8724;51.272;6.554;2022-07-29T08:53:44;7.70;;;4.10;;
4700;SDS011;8724;51.272;6.554;2022-07-29T08:56:16;8.23;;;4.30;;
4700;SDS011;8724;51.272;6.554;2022-07-29T08:58:46;10.67;;;4.33;;
4700;SDS011;8724;51.272;6.554;2022-07-29T09:01:21;6.40;;;4.53;;
4700;SDS011;8724;51.272;6.554;2022-07-29T09:04:03;5.83;;;3.73;;
4700;SDS011;8724;51.272;6.554;2022-07-29T09:06:34;6.10;;;4.70;;
4700;SDS011;8724;51.272;6.554;2022-07-29T09:09:07;5.77;;;3.90;;
4700;SDS011;8724;51.272;6.554;2022-07-29T09:11:37;5.90;;;3.90;;
4700;SDS011;8724;51.272;6.554;2022-07-29T09:14:06;6.80;;;3.57;;
4700;SDS011;8724;51.272;6.554;2022-07-29T09:16:49;5.30;;;3.30;;
4700;SDS011;8724;51.272;6.554;2022-07-29T09:19:20;5.77;;;3.20;;
4700;SDS011;8724;51.272;6.554;2022-07-29T09:21:54;3.80;;;3.30;;
4700;SDS011;8724;51.272;6.554;2022-07-29T09:24:42;4.30;;;3.90;;
4700;SDS011;8724;51.272;6.554;2022-07-29T09:28:09;7.70;;;4.60;;
4700;SDS011;8724;51.272;6.554;2022-07-29T09:30:50;4.33;;;3.03;;
4700;SDS011;8724;51.272;6.554;2022-07-29T09:33:20;8.20;;;4.23;;
4700;SDS011;8724;51.272;6.554;2022-07-29T09:35:58;4.90;;;4.20;;
4700;SDS011;8724;51.272;6.554;2022-07-29T09:38:29;6.73;;;3.40;;
4700;SDS011;8724;51.272;6.554;2022-07-29T09:40:58;5.30;;;3.80;;
4700;SDS011;8724;51.272;6.554;2022-07-29T09:43:33;9.20;;;3.53;;
4700;SDS011;8724;51.272;6.554;2022-07-29T09:46:10;8.77;;;3.80;;
4700;SDS011;8724;51.272;6.554;2022-07-29T09:48:39;6.20;;;3.60;;
4700;SDS011;8724;51.272;6.554;2022-07-29T09:51:16;7.70;;;3.83;;
4700;SDS011;8724;51.272;6.554;2022-07-29T09:54:04;6.50;;;4.10;;
4700;SDS011;8724;51.272;6.554;2022-07-29T09:56:52;13.13;;;4.30;;
4700;SDS011;8724;51.272;6.554;2022-07-29T09:59:23;6.40;;;4.03;;
4700;SDS011;8724;51.272;6.554;2022-07-29T10:01:53;5.87;;;3.20;;
4700;SDS011;8724;51.272;6.554;2022-07-29T10:04:22;9.20;;;4.23;;
4700;SDS011;8724;51.272;6.554;2022-07-29T10:06:57;6.57;;;5.00;;
4700;SDS011;8724;51.272;6.554;2022-07-29T10:09:31;5.53;;;3.50;;
4700;SDS011;8724;51.272;6.554;2022-07-29T10:12:06;6.67;;;4.40;;
4700;SDS011;8724;51.272;6.554;2022-07-29T10:14:39;8.27;;;4.60;;
4700;SDS011;8724;51.272;6.554;2022-07-29T10:17:08;6.07;;;5.47;;
4700;SDS011;8724;51.272;6.554;2022-07-29T10:19:37;7.10;;;4.40;;
4700;SDS011;8724;51.272;6.554;2022-07-29T10:22:08;4.60;;;4.10;;
4700;SDS011;8724;51.272;6.554;2022-07-29T10:24:38;8.03;;;4.30;;
4700;SDS011;8724;51.272;6.554;2022-07-29T10:27:07;4.70;;;3.53;;
4700;SDS011;8724;51.272;6.554;2022-07-29T10:29:36;6.87;;;4.30;;
4700;SDS011;8724;51.272;6.554;2022-07-29T10:32:15;5.63;;;3.53;;
4700;SDS011;8724;51.272;6.554;2022-07-29T10:38:07;6.73;;;3.20;;
4700;SDS011;8724;51.272;6.554;2022-07-29T10:40:52;5.93;;;2.97;;
4700;SDS011;8724;51.272;6.554;2022-07-29T10:43:45;6.27;;;3.40;;
4700;SDS011;8724;51.272;6.554;2022-07-29T10:46:17;7.93;;;4.33;;
4700;SDS011;8724;51.272;6.554;2022-07-29T10:49:09;6.60;;;3.80;;
4700;SDS011;8724;51.272;6.554;2022-07-29T10:54:40;15.60;;;13.13;;
4700;SDS011;8724;51.272;6.554;2022-07-29T10:57:18;7.07;;;6.20;;
4700;SDS011;8724;51.272;6.554;2022-07-29T11:00:26;6.47;;;4.50;;
4700;SDS011;8724;51.272;6.554;2022-07-29T11:02:57;4.10;;;3.67;;
4700;SDS011;8724;51.272;6.554;2022-07-29T11:05:53;8.40;;;2.97;;
4700;SDS011;8724;51.272;6.554;2022-07-29T11:08:25;5.07;;;2.60;;
4700;SDS011;8724;51.272;6.554;2022-07-29T11:14:16;3.77;;;2.63;;
4700;SDS011;8724;51.272;6.554;2022-07-29T11:16:58;3.23;;;2.50;;
4700;SDS011;8724;51.272;6.554;2022-07-29T11:19:32;4.50;;;2.80;;
4700;SDS011;8724;51.272;6.554;2022-07-29T11:22:09;4.63;;;2.27;;
4700;SDS011;8724;51.272;6.554;2022-07-29T11:24:42;5.47;;;2.87;;
4700;SDS011;8724;51.272;6.554;2022-07-29T11:27:16;4.00;;;3.33;;
4700;SDS011;8724;51.272;6.554;2022-07-29T11:29:50;6.90;;;3.63;;
4700;SDS011;8724;51.272;6.554;2022-07-29T11:32:41;8.87;;;4.00;;
4700;SDS011;8724;51.272;6.554;2022-07-29T11:35:15;6.80;;;4.50;;
4700;SDS011;8724;51.272;6.554;2022-07-29T11:41:21;5.07;;;2.97;;
4700;SDS011;8724;51.272;6.554;2022-07-29T11:43:53;8.77;;;4.00;;
4700;SDS011;8724;51.272;6.554;2022-07-29T11:49:13;7.13;;;4.17;;
4700;SDS011;8724;51.272;6.554;2022-07-29T11:51:59;10.50;;;4.53;;
4700;SDS011;8724;51.272;6.554;2022-07-29T11:54:32;9.00;;;4.13;;
4700;SDS011;8724;51.272;6.554;2022-07-29T11:57:21;7.03;;;4.00;;
4700;SDS011;8724;51.272;6.554;2022-07-29T12:00:03;10.23;;;3.70;;
4700;SDS011;8724;51.272;6.554;2022-07-29T12:02:38;8.77;;;4.30;;
4700;SDS011;8724;51.272;6.554;2022-07-29T12:05:14;35.03;;;27.37;;
4700;SDS011;8724;51.272;6.554;2022-07-29T12:08:12;31.03;;;24.27;;
4700;SDS011;8724;51.272;6.554;2022-07-29T12:10:47;10.90;;;7.70;;
4700;SDS011;8724;51.272;6.554;2022-07-29T12:13:18;7.40;;;3.57;;
4700;SDS011;8724;51.272;6.554;2022-07-29T12:16:03;6.80;;;3.07;;
4700;SDS011;8724;51.272;6.554;2022-07-29T12:18:32;4.20;;;2.87;;
4700;SDS011;8724;51.272;6.554;2022-07-29T12:21:01;2.70;;;2.30;;
4700;SDS011;8724;51.272;6.554;2022-07-29T12:23:30;3.53;;;2.90;;
4700;SDS011;8724;51.272;6.554;2022-07-29T12:26:03;5.07;;;2.73;;
4700;SDS011;8724;51.272;6.554;2022-07-29T12:28:36;3.60;;;2.60;;
4700;SDS011;8724;51.272;6.554;2022-07-29T12:31:05;3.83;;;2.73;;
4700;SDS011;8724;51.272;6.554;2022-07-29T12:34:00;3.03;;;2.40;;
4700;SDS011;8724;51.272;6.554;2022-07-29T12:36:28;5.77;;;3.27;;
4700;SDS011;8724;51.272;6.554;2022-07-29T12:38:56;4.43;;;3.00;;
4700;SDS011;8724;51.272;6.554;2022-07-29T12:41:28;2.70;;;2.50;;
4700;SDS011;8724;51.272;6.554;2022-07-29T12:43:56;5.07;;;2.53;;
4700;SDS011;8724;51.272;6.554;2022-07-29T12:46:25;4.23;;;2.73;;
4700;SDS011;8724;51.272;6.554;2022-07-29T12:48:54;5.93;;;3.27;;
4700;SDS011;8724;51.272;6.554;2022-07-29T12:51:29;4.20;;;2.87;;
4700;SDS011;8724;51.272;6.554;2022-07-29T12:54:02;4.47;;;3.70;;
4700;SDS011;8724;51.272;6.554;2022-07-29T12:56:34;4.00;;;2.73;;
4700;SDS011;8724;51.272;6.554;2022-07-29T12:59:15;2.80;;;2.60;;
4700;SDS011;8724;51.272;6.554;2022-07-29T13:01:44;8.33;;;2.93;;
4700;SDS011;8724;51.272;6.554;2022-07-29T13:04:25;2.73;;;2.53;;
4700;SDS011;8724;51.272;6.554;2022-07-29T13:06:58;3.97;;;2.80;;
4700;SDS011;8724;51.272;6.554;2022-07-29T13:09:39;3.83;;;2.50;;
4700;SDS011;8724;51.272;6.554;2022-07-29T13:12:11;2.97;;;2.40;;
4700;SDS011;8724;51.272;6.554;2022-07-29T13:14:40;6.30;;;2.63;;
4700;SDS011;8724;51.272;6.554;2022-07-29T13:17:10;3.33;;;2.20;;
4700;SDS011;8724;51.272;6.554;2022-07-29T13:19:40;5.93;;;2.80;;
4700;SDS011;8724;51.272;6.554;2022-07-29T13:22:10;4.37;;;2.40;;
4700;SDS011;8724;51.272;6.554;2022-07-29T13:24:46;8.83;;;2.73;;
4700;SDS011;8724;51.272;6.554;2022-07-29T13:27:17;3.07;;;2.07;;
4700;SDS011;8724;51.272;6.554;2022-07-29T13:29:47;7.57;;;3.17;;
4700;SDS011;8724;51.272;6.554;2022-07-29T13:32:17;5.07;;;2.77;;
4700;SDS011;8724;51.272;6.554;2022-07-29T13:34:54;5.57;;;2.50;;
4700;SDS011;8724;51.272;6.554;2022-07-29T13:37:23;4.30;;;2.40;;
4700;SDS011;8724;51.272;6.554;2022-07-29T13:39:52;2.43;;;2.23;;
4700;SDS011;8724;51.272;6.554;2022-07-29T13:42:23;4.47;;;2.70;;
4700;SDS011;8724;51.272;6.554;2022-07-29T13:44:52;4.40;;;2.40;;
4700;SDS011;8724;51.272;6.554;2022-07-29T13:47:21;5.03;;;2.63;;
4700;SDS011;8724;51.272;6.554;2022-07-29T13:49:58;2.43;;;2.13;;
4700;SDS011;8724;51.272;6.554;2022-07-29T13:52:27;3.87;;;2.27;;
4700;SDS011;8724;51.272;6.554;2022-07-29T13:54:55;3.23;;;2.70;;
4700;SDS011;8724;51.272;6.554;2022-07-29T13:57:25;3.70;;;2.23;;
4700;SDS011;8724;51.272;6.554;2022-07-29T13:59:54;3.00;;;2.03;;
4700;SDS011;8724;51.272;6.554;2022-07-29T14:02:23;4.60;;;1.90;;
4700;SDS011;8724;51.272;6.554;2022-07-29T14:04:52;3.23;;;1.80;;
4700;SDS011;8724;51.272;6.554;2022-07-29T14:07:21;2.80;;;1.77;;
4700;SDS011;8724;51.272;6.554;2022-07-29T14:09:50;2.77;;;1.60;;
4700;SDS011;8724;51.272;6.554;2022-07-29T14:12:18;1.80;;;1.63;;
4700;SDS011;8724;51.272;6.554;2022-07-29T14:14:48;3.97;;;2.27;;
4700;SDS011;8724;51.272;6.554;2022-07-29T14:17:17;2.20;;;1.67;;
4700;SDS011;8724;51.272;6.554;2022-07-29T14:19:45;4.37;;;2.27;;
4700;SDS011;8724;51.272;6.554;2022-07-29T14:22:13;6.77;;;2.60;;
4700;SDS011;8724;51.272;6.554;2022-07-29T14:24:42;1.30;;;1.20;;
4700;SDS011;8724;51.272;6.554;2022-07-29T14:27:10;7.03;;;2.70;;
4700;SDS011;8724;51.272;6.554;2022-07-29T14:29:39;3.30;;;1.60;;
4700;SDS011;8724;51.272;6.554;2022-07-29T14:39:10;2.60;;;1.87;;
4700;SDS011;8724;51.272;6.554;2022-07-29T14:41:58;2.03;;;1.57;;
4700;SDS011;8724;51.272;6.554;2022-07-29T14:44:27;3.07;;;2.00;;
4700;SDS011;8724;51.272;6.554;2022-07-29T14:46:58;2.50;;;1.90;;
4700;SDS011;8724;51.272;6.554;2022-07-29T14:49:33;2.97;;;2.30;;
4700;SDS011;8724;51.272;6.554;2022-07-29T14:52:02;3.57;;;2.20;;
4700;SDS011;8724;51.272;6.554;2022-07-29T14:54:32;4.60;;;2.10;;
4700;SDS011;8724;51.272;6.554;2022-07-29T14:57:00;3.33;;;2.10;;
4700;SDS011;8724;51.272;6.554;2022-07-29T14:59:29;3.17;;;1.83;;
4700;SDS011;8724;51.272;6.554;2022-07-29T15:01:57;3.90;;;1.90;;
4700;SDS011;8724;51.272;6.554;2022-07-29T15:04:27;6.77;;;2.73;;
4700;SDS011;8724;51.272;6.554;2022-07-29T15:06:55;3.10;;;1.97;;
4700;SDS011;8724;51.272;6.554;2022-07-29T15:09:24;4.47;;;2.07;;
4700;SDS011;8724;51.272;6.554;2022-07-29T15:11:54;2.60;;;1.73;;
4700;SDS011;8724;51.272;6.554;2022-07-29T15:14:22;3.50;;;1.97;;
4700;SDS011;8724;51.272;6.554;2022-07-29T15:16:51;3.00;;;2.00;;
4700;SDS011;8724;51.272;6.554;2022-07-29T15:19:19;5.63;;;1.93;;
4700;SDS011;8724;51.272;6.554;2022-07-29T15:21:48;1.90;;;1.70;;
4700;SDS011;8724;51.272;6.554;2022-07-29T15:24:16;2.57;;;1.77;;
4700;SDS011;8724;51.272;6.554;2022-07-29T15:26:45;1.90;;;1.80;;
4700;SDS011;8724;51.272;6.554;2022-07-29T15:29:15;1.90;;;1.80;;
4700;SDS011;8724;51.272;6.554;2022-07-29T15:31:44;2.23;;;1.90;;
4700;SDS011;8724;51.272;6.554;2022-07-29T15:34:12;4.20;;;2.33;;
4700;SDS011;8724;51.272;6.554;2022-07-29T15:36:41;2.27;;;1.70;;
4700;SDS011;8724;51.272;6.554;2022-07-29T15:39:18;2.50;;;1.90;;
4700;SDS011;8724;51.272;6.554;2022-07-29T15:41:47;2.40;;;1.70;;
4700;SDS011;8724;51.272;6.554;2022-07-29T15:44:18;2.67;;;1.63;;
4700;SDS011;8724;51.272;6.554;2022-07-29T15:46:47;1.90;;;1.30;;
4700;SDS011;8724;51.272;6.554;2022-07-29T15:49:31;2.63;;;1.77;;
4700;SDS011;8724;51.272;6.554;2022-07-29T15:52:15;3.90;;;1.93;;
4700;SDS011;8724;51.272;6.554;2022-07-29T15:54:51;2.60;;;1.70;;
4700;SDS011;8724;51.272;6.554;2022-07-29T15:57:21;2.73;;;1.93;;
4700;SDS011;8724;51.272;6.554;2022-07-29T15:59:51;3.07;;;1.77;;
4700;SDS011;8724;51.272;6.554;2022-07-29T16:02:20;1.43;;;1.33;;
4700;SDS011;8724;51.272;6.554;2022-07-29T16:04:48;2.03;;;1.77;;
4700;SDS011;8724;51.272;6.554;2022-07-29T16:07:17;2.70;;;2.10;;
4700;SDS011;8724;51.272;6.554;2022-07-29T16:09:45;1.97;;;1.70;;